Time;durP1;ratioP1;P1;durP2;ratioP2;P2;SDS_P1;SDS_P2;PMS_P1;PMS_P2;Temp;Humidity;BMP_temperature;BMP_pressure;BME280_temperature;BME280_humidity;BME280_pressure;Samples;Min_cycle;Max_cycle;Signal;HPM_P1;HPM_P2
2022/01/16 00:04:05;;;;;;;7.45;4.40;;;17.30;44.60;;;;;;4942594;28;20178;-52
2022/01/16 00:04:55;;;;;;;9.63;5.25;;;17.30;44.80;;;;;;4947291;28;20039;-54
2022/01/16 00:07:22;;;;;;;6.22;3.58;;;17.20;44.70;;;;;;4947619;28;20138;-51
2022/01/16 00:09:49;;;;;;;6.28;3.95;;;17.20;44.70;;;;;;4946317;28;20063;-52
2022/01/16 00:12:18;;;;;;;6.32;3.17;;;17.20;44.70;;;;;;4946938;29;20039;-50
2022/01/16 00:14:47;;;;;;;11.48;4.03;;;17.20;44.70;;;;;;4946927;28;20040;-54
2022/01/16 00:17:14;;;;;;;9.52;4.63;;;17.20;44.70;;;;;;4948163;28;20538;-51
2022/01/16 00:19:41;;;;;;;10.20;3.80;;;17.20;44.90;;;;;;4948287;28;20058;-51
2022/01/16 00:22:13;;;;;;;11.13;4.50;;;17.20;44.90;;;;;;4948163;28;20428;-46
2022/01/16 00:24:41;;;;;;;10.10;5.00;;;17.20;45.10;;;;;;4948866;28;20054;-52
2022/01/16 00:27:08;;;;;;;6.43;4.47;;;17.20;45.10;;;;;;4945771;28;20044;-46
2022/01/16 00:29:35;;;;;;;8.30;5.10;;;17.20;45.10;;;;;;4947388;28;20084;-51
2022/01/16 00:32:04;;;;;;;5.50;3.65;;;17.20;45.10;;;;;;4944923;28;20043;-54
2022/01/16 00:34:31;;;;;;;5.95;3.92;;;17.20;45.10;;;;;;4948281;28;20051;-52
2022/01/16 00:36:58;;;;;;;7.32;4.90;;;17.20;45.10;;;;;;4948121;28;20039;-50
2022/01/16 00:39:25;;;;;;;5.53;3.70;;;17.20;45.10;;;;;;4949608;29;20427;-49
2022/01/16 00:41:52;;;;;;;7.97;3.97;;;17.20;45.10;;;;;;4945610;28;20049;-50
2022/01/16 00:44:21;;;;;;;7.05;4.25;;;17.20;45.10;;;;;;4947332;28;20145;-48
2022/01/16 00:46:48;;;;;;;8.32;4.40;;;17.10;44.90;;;;;;4947277;28;20043;-49
2022/01/16 00:49:16;;;;;;;5.00;3.53;;;17.20;45.00;;;;;;4946790;28;20047;-47
2022/01/16 00:51:43;;;;;;;4.38;3.50;;;17.20;45.00;;;;;;4946537;28;20062;-48
2022/01/16 00:54:10;;;;;;;5.60;3.83;;;17.10;44.90;;;;;;4949124;28;20043;-48
2022/01/16 00:56:37;;;;;;;4.18;3.88;;;17.10;44.90;;;;;;4947491;28;20070;-49
2022/01/16 00:59:04;;;;;;;6.18;4.43;;;17.10;44.90;;;;;;4946781;28;20043;-51
2022/01/16 01:01:31;;;;;;;4.50;3.50;;;17.10;44.90;;;;;;4947710;28;20074;-51
2022/01/16 01:03:58;;;;;;;6.13;4.28;;;17.10;44.90;;;;;;4947174;28;20051;-51
2022/01/16 01:06:26;;;;;;;7.53;4.13;;;17.10;45.00;;;;;;4949188;28;20047;-48
2022/01/16 01:08:53;;;;;;;6.50;3.92;;;17.10;45.00;;;;;;4930290;29;20106;-50
2022/01/16 01:11:26;;;;;;;6.53;4.75;;;17.10;45.00;;;;;;4947629;28;20070;-48
2022/01/16 01:14:08;;;;;;;6.47;4.00;;;17.10;45.10;;;;;;4947047;28;20146;-51
2022/01/16 01:16:49;;;;;;;7.70;4.75;;;17.10;45.20;;;;;;4940724;28;20412;-50
2022/01/16 01:19:17;;;;;;;7.53;4.68;;;17.10;45.20;;;;;;4946398;28;20471;-50
2022/01/16 01:21:46;;;;;;;8.13;5.72;;;17.00;45.30;;;;;;4947496;28;20036;-51
2022/01/16 01:24:13;;;;;;;5.53;3.97;;;17.00;45.30;;;;;;4948566;28;20051;-50
2022/01/16 01:26:50;;;;;;;5.18;4.20;;;17.00;45.30;;;;;;4946606;28;20170;-53
2022/01/16 01:29:20;;;;;;;6.90;4.97;;;17.10;45.40;;;;;;4946165;28;20058;-55
2022/01/16 01:31:48;;;;;;;6.72;3.60;;;17.00;45.40;;;;;;4946887;28;20046;-51
2022/01/16 01:34:15;;;;;;;6.85;4.07;;;17.00;45.50;;;;;;4947309;28;20064;-49
2022/01/16 01:36:47;;;;;;;6.57;4.78;;;17.00;45.50;;;;;;4947306;28;20067;-50
2022/01/16 01:39:17;;;;;;;5.28;4.40;;;17.00;45.60;;;;;;4946874;29;20542;-54
2022/01/16 01:41:46;;;;;;;5.32;4.13;;;17.00;45.70;;;;;;4945926;28;20040;-51
2022/01/16 01:52:38;;;;;;;4.80;3.75;;;17.00;45.90;;;;;;4905734;29;20062;-51
2022/01/16 01:55:07;;;;;;;4.78;3.50;;;16.90;45.90;;;;;;4903991;29;20048;-49
2022/01/16 01:57:34;;;;;;;9.10;4.80;;;16.90;45.90;;;;;;4906544;29;20543;-51
2022/01/16 02:00:02;;;;;;;6.90;4.88;;;16.90;45.90;;;;;;4903074;29;20052;-51
2022/01/16 02:02:40;;;;;;;5.90;4.47;;;16.90;45.80;;;;;;4905490;29;20606;-53
2022/01/16 02:05:07;;;;;;;6.25;4.28;;;16.90;45.90;;;;;;4905604;29;20088;-50
2022/01/16 02:07:34;;;;;;;5.18;4.60;;;16.90;45.90;;;;;;4900492;29;20545;-50
2022/01/16 02:10:01;;;;;;;7.25;4.40;;;16.90;45.80;;;;;;4906196;29;20040;-49
2022/01/16 02:12:30;;;;;;;5.47;4.35;;;16.90;45.90;;;;;;4907093;29;20078;-50
2022/01/16 02:15:06;;;;;;;6.78;4.82;;;16.90;45.90;;;;;;4906027;29;20048;-51
2022/01/16 02:28:54;;;;;;;5.90;4.40;;;16.90;46.10;;;;;;4905665;29;20130;-49
2022/01/16 02:31:24;;;;;;;7.32;4.75;;;16.90;46.10;;;;;;4905584;29;20075;-50
2022/01/16 02:36:46;;;;;;;8.95;5.28;;;16.90;46.10;;;;;;4906259;29;20045;-49
2022/01/16 02:39:16;;;;;;;8.77;4.75;;;16.90;46.20;;;;;;4907489;29;20052;-52
2022/01/16 02:41:45;;;;;;;6.25;4.55;;;16.90;46.10;;;;;;4905202;29;20059;-54
2022/01/16 02:44:19;;;;;;;8.75;5.35;;;16.90;46.10;;;;;;4905541;29;20071;-53
2022/01/16 02:46:47;;;;;;;9.68;5.22;;;16.90;46.10;;;;;;4905447;29;20056;-51
2022/01/16 02:49:19;;;;;;;6.75;4.93;;;16.90;46.30;;;;;;4906669;29;20048;-51
2022/01/16 02:51:47;;;;;;;8.75;5.40;;;16.90;46.30;;;;;;4905650;29;20058;-52
2022/01/16 02:54:15;;;;;;;6.63;4.82;;;16.90;46.30;;;;;;4907480;29;20055;-54
2022/01/16 02:56:43;;;;;;;8.07;5.95;;;16.90;46.30;;;;;;4909271;29;20529;-55
2022/01/16 02:59:11;;;;;;;8.48;5.15;;;16.90;46.20;;;;;;4909265;29;20610;-50
2022/01/16 03:01:39;;;;;;;7.05;5.22;;;16.90;46.30;;;;;;4926683;28;20051;-50
2022/01/16 03:04:06;;;;;;;7.43;5.28;;;16.90;46.20;;;;;;4949885;28;20440;-50
2022/01/16 03:06:34;;;;;;;8.27;5.78;;;16.90;46.80;;;;;;4951781;28;20051;-47
2022/01/16 03:09:01;;;;;;;9.68;5.50;;;16.90;46.10;;;;;;4931111;29;20138;-48
2022/01/16 03:11:35;;;;;;;9.93;4.38;;;16.90;46.10;;;;;;4930524;29;20059;-46
2022/01/16 03:14:02;;;;;;;6.85;5.03;;;16.90;46.20;;;;;;4930592;29;20043;-51
2022/01/16 03:16:29;;;;;;;7.38;6.50;;;16.90;46.30;;;;;;4930865;29;20052;-50
2022/01/16 03:21:54;;;;;;;7.00;4.95;;;16.90;46.30;;;;;;4930898;29;20044;-51
2022/01/16 03:24:21;;;;;;;8.07;6.05;;;16.90;46.20;;;;;;4932167;29;20135;-49
2022/01/16 03:26:49;;;;;;;10.80;6.75;;;16.80;46.20;;;;;;4929648;29;20095;-50
2022/01/16 03:29:17;;;;;;;8.05;5.65;;;16.90;46.20;;;;;;4930504;29;20047;-47
2022/01/16 03:31:43;;;;;;;9.32;6.28;;;16.80;46.10;;;;;;4930173;29;20043;-48
2022/01/16 03:34:10;;;;;;;5.70;4.38;;;16.90;46.10;;;;;;4929557;29;20059;-54
2022/01/16 03:36:37;;;;;;;7.78;5.38;;;16.90;46.10;;;;;;4930929;29;20062;-51
2022/01/16 03:39:05;;;;;;;8.32;6.10;;;16.90;46.10;;;;;;4930913;29;20118;-48
2022/01/16 03:41:34;;;;;;;8.35;5.00;;;16.90;46.00;;;;;;4930061;29;20048;-50
2022/01/16 03:44:03;;;;;;;7.60;6.30;;;16.90;46.00;;;;;;4928736;29;20061;-49
2022/01/16 03:46:34;;;;;;;7.68;5.63;;;16.80;46.00;;;;;;4928832;29;20056;-52
2022/01/16 03:49:06;;;;;;;9.00;6.00;;;16.80;45.90;;;;;;4930015;29;20115;-53
2022/01/16 03:51:34;;;;;;;7.13;5.15;;;16.80;45.90;;;;;;4928848;29;20047;-51
2022/01/16 03:54:01;;;;;;;8.73;5.10;;;16.80;45.90;;;;;;4930513;29;20535;-52
2022/01/16 03:56:28;;;;;;;7.82;5.30;;;16.80;45.90;;;;;;4926200;29;20050;-50
2022/01/16 03:58:55;;;;;;;8.52;4.97;;;16.80;45.90;;;;;;4929599;29;20527;-49
2022/01/16 04:01:25;;;;;;;5.97;5.13;;;16.80;45.90;;;;;;4929435;29;20044;-47
2022/01/16 04:03:52;;;;;;;10.40;6.45;;;16.80;46.40;;;;;;4929186;29;20043;-50
2022/01/16 04:06:19;;;;;;;10.63;6.20;;;16.80;45.90;;;;;;4931278;29;20050;-52
2022/01/16 04:08:46;;;;;;;7.70;6.13;;;16.80;45.80;;;;;;4946843;28;20062;-48
2022/01/16 04:11:13;;;;;;;12.15;5.80;;;16.80;45.90;;;;;;4949041;28;20058;-52
2022/01/16 04:13:48;;;;;;;10.20;6.20;;;16.80;45.80;;;;;;4948387;29;20051;-54
2022/01/16 04:16:15;;;;;;;8.52;6.22;;;16.80;45.70;;;;;;4948753;28;20047;-52
2022/01/16 04:18:49;;;;;;;6.18;4.68;;;16.80;45.70;;;;;;4948384;28;20050;-51
2022/01/16 04:21:16;;;;;;;8.35;5.28;;;16.80;45.70;;;;;;4948603;29;20507;-51
2022/01/16 04:23:43;;;;;;;8.95;6.47;;;16.80;45.70;;;;;;4948755;28;20043;-50
2022/01/16 04:26:10;;;;;;;11.10;6.28;;;16.70;45.60;;;;;;4947285;28;20043;-50
2022/01/16 04:28:37;;;;;;;8.00;5.88;;;16.80;45.70;;;;;;4946836;28;20043;-52
2022/01/16 04:31:04;;;;;;;8.55;5.80;;;16.80;45.70;;;;;;4948321;28;20696;-50
2022/01/16 04:33:31;;;;;;;7.80;5.47;;;16.70;45.70;;;;;;4950516;29;20413;-50
2022/01/16 04:35:59;;;;;;;9.95;6.15;;;16.70;45.70;;;;;;4947602;28;20043;-48
2022/01/16 04:38:27;;;;;;;6.68;4.88;;;16.70;45.70;;;;;;4945192;28;20039;-49
2022/01/16 04:43:52;;;;;;;8.90;5.25;;;16.70;45.90;;;;;;4948228;28;20050;-51
2022/01/16 04:46:21;;;;;;;9.82;6.15;;;16.70;45.90;;;;;;4948523;28;20066;-52
2022/01/16 04:48:49;;;;;;;10.68;5.85;;;16.70;45.90;;;;;;4948168;28;20043;-51
2022/01/16 04:51:18;;;;;;;9.95;6.70;;;16.70;46.00;;;;;;4947743;29;20408;-49
2022/01/16 04:53:45;;;;;;;8.65;5.53;;;16.70;46.10;;;;;;4947966;28;20039;-53
2022/01/16 04:56:13;;;;;;;8.88;5.70;;;16.70;46.20;;;;;;4948198;28;20530;-53
2022/01/16 04:58:41;;;;;;;8.27;5.07;;;16.70;46.20;;;;;;4947892;28;20428;-53
2022/01/16 05:01:08;;;;;;;7.63;5.32;;;16.70;46.20;;;;;;4947945;28;20047;-51
2022/01/16 05:03:36;;;;;;;7.45;6.18;;;16.70;46.30;;;;;;4948794;28;20043;-51
2022/01/16 05:06:04;;;;;;;7.10;5.15;;;16.70;46.40;;;;;;4948610;28;20042;-54
2022/01/16 05:08:33;;;;;;;8.00;6.13;;;16.70;46.50;;;;;;4947505;28;20066;-51
2022/01/16 05:11:00;;;;;;;7.85;5.50;;;16.70;46.50;;;;;;4947815;28;20400;-50
2022/01/16 05:16:34;;;;;;;8.43;5.65;;;16.70;46.60;;;;;;4947388;28;20054;-52
2022/01/16 05:16:36;;;;;;;6.78;4.75;;;16.70;46.60;;;;;;4943372;28;20432;-53
2022/01/16 05:19:05;;;;;;;14.45;6.45;;;16.70;46.60;;;;;;4946502;28;20111;-49
2022/01/16 05:21:32;;;;;;;9.13;5.93;;;16.70;46.70;;;;;;4949633;28;20431;-54
2022/01/16 05:24:03;;;;;;;7.70;4.80;;;16.60;46.60;;;;;;4948070;28;20795;-50
2022/01/16 05:26:30;;;;;;;7.25;5.65;;;16.70;46.70;;;;;;4947330;28;20086;-53
2022/01/16 05:28:57;;;;;;;9.80;6.82;;;16.60;46.60;;;;;;4946727;28;20036;-51
2022/01/16 05:31:24;;;;;;;9.82;6.13;;;16.60;46.60;;;;;;4946212;28;20035;-52
2022/01/16 05:33:51;;;;;;;8.52;5.15;;;16.60;46.60;;;;;;4947030;28;20051;-52
2022/01/16 05:36:20;;;;;;;8.07;5.68;;;16.60;46.70;;;;;;4949149;29;20054;-52
2022/01/16 05:38:47;;;;;;;7.13;4.55;;;16.60;46.70;;;;;;4947377;28;20050;-52
2022/01/16 05:41:18;;;;;;;7.28;5.05;;;16.60;46.70;;;;;;4947220;28;20504;-50
2022/01/16 05:43:45;;;;;;;7.70;4.43;;;16.60;46.60;;;;;;4939066;28;20110;-49
2022/01/16 05:46:13;;;;;;;7.72;5.18;;;16.60;46.70;;;;;;4946115;28;20102;-49
2022/01/16 05:48:40;;;;;;;8.18;4.63;;;16.60;46.70;;;;;;4947732;28;20738;-53
2022/01/16 05:51:08;;;;;;;9.15;6.00;;;16.60;46.60;;;;;;4948795;28;20415;-53
2022/01/16 05:53:35;;;;;;;8.82;5.38;;;16.60;46.70;;;;;;4934126;29;20397;-52
2022/01/16 05:56:02;;;;;;;6.22;4.20;;;16.60;46.70;;;;;;4947340;28;20040;-50
2022/01/16 05:58:31;;;;;;;6.78;5.03;;;16.60;46.70;;;;;;4947056;28;20054;-50
2022/01/16 06:00:58;;;;;;;7.40;5.28;;;16.60;46.70;;;;;;4945919;28;20039;-52
2022/01/16 06:03:25;;;;;;;6.57;4.35;;;16.60;46.90;;;;;;4948371;29;20061;-54
2022/01/16 06:05:52;;;;;;;7.22;4.50;;;16.60;46.90;;;;;;4944767;28;20045;-55
2022/01/16 06:08:19;;;;;;;8.13;4.57;;;16.60;46.90;;;;;;4943484;29;20515;-51
2022/01/16 06:10:46;;;;;;;7.47;3.78;;;16.60;47.00;;;;;;4945369;28;20047;-54
2022/01/16 06:13:14;;;;;;;8.48;4.20;;;16.60;47.00;;;;;;4944729;28;20065;-53
2022/01/16 06:15:42;;;;;;;10.65;4.28;;;16.60;47.00;;;;;;4946031;28;20039;-53
2022/01/16 06:18:09;;;;;;;5.95;3.72;;;16.60;47.00;;;;;;4944694;29;20054;-50
2022/01/16 06:20:36;;;;;;;5.95;4.43;;;16.60;46.90;;;;;;4945761;28;20389;-53
2022/01/16 06:23:03;;;;;;;5.22;3.97;;;16.60;46.90;;;;;;4944497;28;20134;-49
2022/01/16 06:25:30;;;;;;;7.85;3.50;;;16.60;46.90;;;;;;4944700;28;20527;-52
2022/01/16 06:27:57;;;;;;;4.50;3.70;;;16.60;47.00;;;;;;4947898;28;20051;-49
2022/01/16 06:30:25;;;;;;;6.57;4.38;;;16.60;46.90;;;;;;4950161;29;20050;-48
2022/01/16 06:32:53;;;;;;;5.82;3.70;;;16.60;47.00;;;;;;4951628;28;20051;-52
2022/01/16 06:35:20;;;;;;;9.88;4.50;;;16.60;47.10;;;;;;4951068;28;20051;-49
2022/01/16 06:37:47;;;;;;;5.22;3.35;;;16.60;47.10;;;;;;4949632;28;20051;-50
2022/01/16 06:40:15;;;;;;;7.75;3.90;;;16.60;47.10;;;;;;4952939;28;20111;-49
2022/01/16 06:42:42;;;;;;;6.85;3.50;;;16.60;47.40;;;;;;4949517;28;20039;-51
2022/01/16 06:45:11;;;;;;;6.43;3.08;;;16.60;47.60;;;;;;4954171;28;20518;-51
2022/01/16 06:47:39;;;;;;;14.07;3.88;;;16.60;47.80;;;;;;4949387;28;20055;-51
2022/01/16 06:50:09;;;;;;;7.63;3.85;;;16.60;48.20;;;;;;4948596;28;20047;-46
2022/01/16 06:52:36;;;;;;;8.32;3.40;;;16.60;48.20;;;;;;4951287;28;20047;-48
2022/01/16 06:55:04;;;;;;;6.25;3.75;;;16.60;48.10;;;;;;4951837;28;20115;-53
2022/01/16 06:57:31;;;;;;;6.47;3.58;;;16.60;48.10;;;;;;4954218;28;20500;-50
2022/01/16 06:59:58;;;;;;;4.63;2.85;;;16.60;48.20;;;;;;4952406;28;20047;-49
2022/01/16 07:02:27;;;;;;;10.43;4.38;;;16.60;48.20;;;;;;4950769;28;20869;-46
2022/01/16 07:04:54;;;;;;;5.07;2.65;;;16.60;48.10;;;;;;4952733;28;20047;-48
2022/01/16 07:07:22;;;;;;;9.55;3.83;;;16.60;48.00;;;;;;4952556;28;20139;-51
2022/01/16 07:09:49;;;;;;;4.72;2.97;;;16.60;48.00;;;;;;4952817;28;20038;-47
2022/01/16 07:12:16;;;;;;;8.38;4.30;;;16.60;47.90;;;;;;4953689;29;20051;-47
2022/01/16 07:14:44;;;;;;;4.32;2.45;;;16.60;47.80;;;;;;4953054;28;20051;-52
2022/01/16 07:17:11;;;;;;;7.90;3.75;;;16.60;47.70;;;;;;4951823;28;20047;-48
2022/01/16 07:19:38;;;;;;;5.18;2.42;;;16.60;47.60;;;;;;4952009;28;20043;-50
2022/01/16 07:22:05;;;;;;;7.80;4.45;;;16.60;47.60;;;;;;4951476;28;20043;-48
2022/01/16 07:24:34;;;;;;;6.40;2.53;;;16.60;47.50;;;;;;4952925;28;20045;-52
2022/01/16 07:27:01;;;;;;;5.70;2.70;;;16.50;47.40;;;;;;4953306;28;20050;-48
2022/01/16 07:29:28;;;;;;;4.28;2.70;;;16.50;47.30;;;;;;4950593;28;20046;-48
2022/01/16 07:31:55;;;;;;;4.82;2.70;;;16.50;47.30;;;;;;4947456;28;20051;-48
2022/01/16 07:34:23;;;;;;;4.20;2.58;;;16.50;47.20;;;;;;4952783;28;20038;-52
2022/01/16 07:36:50;;;;;;;4.43;2.90;;;16.50;47.70;;;;;;4952727;28;20122;-54
2022/01/16 07:39:17;;;;;;;3.42;1.95;;;16.50;47.10;;;;;;4952647;28;20559;-52
2022/01/16 07:41:46;;;;;;;3.28;2.00;;;16.50;47.00;;;;;;4949313;28;20047;-49
2022/01/16 07:44:14;;;;;;;3.88;1.98;;;16.50;46.90;;;;;;4931753;29;20062;-51
2022/01/16 07:46:41;;;;;;;2.75;1.42;;;16.50;46.90;;;;;;4949073;28;20125;-50
2022/01/16 07:49:09;;;;;;;2.53;1.65;;;16.50;46.80;;;;;;4949436;28;20035;-49
2022/01/16 07:51:36;;;;;;;3.20;1.75;;;16.50;46.80;;;;;;4950305;29;20047;-51
2022/01/16 07:54:03;;;;;;;3.40;1.88;;;16.50;46.70;;;;;;4949876;28;20043;-51
2022/01/16 07:56:30;;;;;;;4.55;2.38;;;16.50;46.60;;;;;;4949403;28;20043;-54
2022/01/16 07:58:59;;;;;;;4.25;2.33;;;16.50;46.60;;;;;;4948968;28;20039;-51
2022/01/16 08:01:26;;;;;;;3.60;2.33;;;16.50;46.50;;;;;;4949321;28;20054;-49
2022/01/16 08:03:53;;;;;;;4.22;1.80;;;16.50;46.50;;;;;;4947710;28;20424;-51
2022/01/16 08:06:20;;;;;;;3.83;1.90;;;16.50;46.40;;;;;;4950595;29;20130;-51
2022/01/16 08:08:48;;;;;;;2.10;1.42;;;16.50;46.40;;;;;;4948773;28;20497;-50
2022/01/16 08:11:15;;;;;;;2.90;2.13;;;16.50;46.40;;;;;;4948845;28;20078;-50
2022/01/16 08:13:42;;;;;;;4.07;1.85;;;16.50;46.30;;;;;;4946629;28;20031;-47
2022/01/16 08:16:11;;;;;;;3.10;1.98;;;16.50;46.30;;;;;;4948711;28;20082;-48
2022/01/16 08:18:38;;;;;;;4.25;1.35;;;16.50;46.20;;;;;;4948866;28;20127;-51
2022/01/16 08:21:05;;;;;;;2.47;1.67;;;16.50;46.20;;;;;;4949833;28;20039;-50
2022/01/16 08:23:32;;;;;;;1.85;1.75;;;16.50;46.20;;;;;;4945526;28;20054;-49
2022/01/16 08:25:59;;;;;;;2.80;1.77;;;16.50;46.10;;;;;;4947642;28;20047;-53
2022/01/16 08:28:26;;;;;;;4.53;2.40;;;16.50;46.10;;;;;;4948228;28;20054;-52
2022/01/16 08:30:54;;;;;;;2.33;1.70;;;16.50;46.00;;;;;;4948323;28;20053;-51
2022/01/16 08:33:22;;;;;;;4.80;1.60;;;16.50;46.00;;;;;;4948811;29;20579;-51
2022/01/16 08:35:49;;;;;;;2.78;1.85;;;16.50;45.90;;;;;;4948372;28;20047;-49
2022/01/16 08:38:17;;;;;;;2.72;1.25;;;16.50;45.90;;;;;;4947946;28;20067;-52
2022/01/16 08:40:44;;;;;;;2.88;1.65;;;16.50;45.80;;;;;;4946262;28;20051;-48
2022/01/16 08:43:12;;;;;;;2.08;1.70;;;16.50;45.80;;;;;;4947965;28;20630;-51
2022/01/16 08:45:41;;;;;;;3.10;1.80;;;16.40;45.70;;;;;;4948881;28;20058;-47
2022/01/16 08:48:09;;;;;;;2.30;1.75;;;16.50;45.80;;;;;;4949530;28;20087;-53
2022/01/16 08:50:39;;;;;;;2.63;1.85;;;16.50;45.70;;;;;;4947745;28;20054;-48
2022/01/16 08:53:06;;;;;;;1.58;1.08;;;16.50;45.70;;;;;;4947696;28;20039;-51
2022/01/16 08:55:34;;;;;;;2.17;1.15;;;16.50;45.70;;;;;;4948466;28;20439;-51
2022/01/16 08:58:01;;;;;;;1.75;1.20;;;16.50;45.60;;;;;;4933643;28;20503;-52
2022/01/16 09:00:29;;;;;;;1.48;1.38;;;16.50;45.50;;;;;;4950015;29;20570;-48
2022/01/16 09:02:57;;;;;;;1.95;1.83;;;16.50;45.50;;;;;;4947624;28;20047;-53
2022/01/16 09:05:24;;;;;;;2.70;1.33;;;16.50;45.50;;;;;;4947734;28;20529;-51
2022/01/16 09:07:53;;;;;;;1.15;1.05;;;16.50;45.50;;;;;;4947501;28;20059;-46
2022/01/16 09:10:20;;;;;;;1.92;1.25;;;16.50;45.40;;;;;;4947578;28;20145;-51
2022/01/16 09:12:47;;;;;;;2.20;1.40;;;16.50;45.40;;;;;;4947987;28;20039;-48
2022/01/16 09:15:16;;;;;;;4.80;1.30;;;16.50;45.30;;;;;;4949225;28;20550;-52
2022/01/16 09:17:43;;;;;;;2.70;1.00;;;16.50;45.30;;;;;;4947328;28;20507;-51
2022/01/16 09:20:13;;;;;;;1.95;1.60;;;16.50;45.30;;;;;;4947416;28;20135;-50
2022/01/16 09:22:42;;;;;;;1.58;1.42;;;16.50;45.20;;;;;;4947720;28;20102;-49
2022/01/16 09:25:13;;;;;;;2.35;1.27;;;16.50;45.10;;;;;;4947926;28;20154;-47
2022/01/16 09:27:40;;;;;;;1.73;1.25;;;16.50;45.10;;;;;;4947525;28;20133;-48
2022/01/16 09:30:10;;;;;;;2.83;1.50;;;16.50;45.10;;;;;;4947947;28;20126;-51
2022/01/16 09:32:37;;;;;;;1.88;1.73;;;16.60;45.10;;;;;;4947241;28;20139;-46
2022/01/16 09:35:07;;;;;;;1.05;1.05;;;16.50;45.10;;;;;;4947332;28;20535;-47
2022/01/16 09:37:35;;;;;;;3.17;2.13;;;16.50;45.10;;;;;;4947549;28;20047;-48
2022/01/16 09:40:03;;;;;;;1.67;0.88;;;16.60;45.10;;;;;;4945250;28;20046;-48
2022/01/16 09:42:32;;;;;;;1.67;1.58;;;16.60;45.10;;;;;;4948763;29;20035;-48
2022/01/16 09:45:00;;;;;;;1.08;0.98;;;16.50;45.00;;;;;;4947252;28;20043;-52
2022/01/16 09:47:27;;;;;;;1.75;0.90;;;16.60;44.90;;;;;;4947013;28;20051;-52
2022/01/16 09:49:54;;;;;;;1.48;1.00;;;16.60;44.90;;;;;;4946819;28;20506;-49
2022/01/16 09:52:21;;;;;;;0.75;0.75;;;16.60;44.90;;;;;;4947520;28;20424;-52
2022/01/16 09:54:49;;;;;;;1.00;0.75;;;16.60;44.80;;;;;;4946693;28;20043;-50
2022/01/16 09:57:17;;;;;;;0.60;0.52;;;16.60;44.80;;;;;;4948623;29;20500;-48
2022/01/16 09:59:46;;;;;;;0.60;0.57;;;16.60;44.70;;;;;;4947058;28;20086;-54
2022/01/16 10:02:14;;;;;;;1.83;1.42;;;16.60;44.70;;;;;;4944828;28;20047;-53
2022/01/16 10:04:43;;;;;;;4.70;1.15;;;16.70;44.80;;;;;;4946765;28;20096;-48
2022/01/16 10:07:12;;;;;;;0.60;0.47;;;16.70;44.80;;;;;;4946511;28;20515;-49
2022/01/16 10:09:40;;;;;;;0.82;0.60;;;16.70;44.70;;;;;;4947137;28;20043;-49
2022/01/16 10:12:15;;;;;;;2.13;0.98;;;16.70;45.20;;;;;;4947525;29;20058;-50
2022/01/16 10:14:48;;;;;;;1.13;0.80;;;16.70;44.50;;;;;;4942522;28;20043;-51
2022/01/16 10:17:17;;;;;;;0.82;0.50;;;16.80;44.50;;;;;;4946210;28;20102;-47
2022/01/16 10:19:45;;;;;;;1.02;0.63;;;16.80;44.50;;;;;;4947029;28;20158;-49
2022/01/16 10:22:14;;;;;;;0.77;0.60;;;16.80;44.40;;;;;;4946441;28;20562;-48
2022/01/16 10:24:43;;;;;;;1.30;1.13;;;16.80;44.40;;;;;;4947102;28;20129;-51
2022/01/16 10:27:17;;;;;;;2.88;0.55;;;16.80;44.40;;;;;;4948507;28;20043;-54
2022/01/16 10:29:48;;;;;;;1.73;0.75;;;16.90;44.30;;;;;;4944359;28;20055;-52
2022/01/16 10:32:17;;;;;;;0.60;0.40;;;16.90;44.30;;;;;;4946430;28;20670;-52
2022/01/16 10:34:45;;;;;;;0.30;0.25;;;16.90;44.20;;;;;;4946967;28;20036;-49
2022/01/16 10:37:24;;;;;;;0.40;0.40;;;16.90;44.20;;;;;;4946998;28;20042;-48
2022/01/16 10:39:54;;;;;;;0.65;0.52;;;16.90;44.70;;;;;;4946803;28;20047;-51
2022/01/16 10:42:21;;;;;;;0.40;0.28;;;17.00;44.10;;;;;;4948857;29;20102;-48
2022/01/16 10:44:56;;;;;;;1.10;0.63;;;17.00;44.00;;;;;;4947443;28;20538;-51
2022/01/16 10:47:29;;;;;;;0.93;0.40;;;17.00;43.90;;;;;;4946645;28;20039;-51
2022/01/16 10:50:08;;;;;;;1.83;1.05;;;17.00;43.80;;;;;;4946363;28;20047;-51
2022/01/16 10:52:51;;;;;;;0.75;0.40;;;17.10;43.80;;;;;;4946583;28;20035;-48
2022/01/16 10:55:21;;;;;;;0.82;0.43;;;17.10;43.70;;;;;;4942025;28;20598;-53
2022/01/16 10:57:48;;;;;;;1.00;1.00;;;17.10;43.60;;;;;;4946575;28;20047;-49
2022/01/16 11:00:19;;;;;;;0.90;0.20;;;17.10;43.50;;;;;;4948150;29;20048;-51
2022/01/16 11:02:47;;;;;;;0.70;0.70;;;17.10;43.40;;;;;;4946536;28;20078;-50
2022/01/16 11:05:17;;;;;;;1.98;0.30;;;17.10;43.40;;;;;;4946393;28;20591;-48
2022/01/16 11:07:45;;;;;;;0.85;0.30;;;17.10;43.40;;;;;;4945929;28;20055;-53
2022/01/16 11:10:27;;;;;;;0.60;0.50;;;17.10;43.30;;;;;;4945566;28;20067;-53
2022/01/16 11:12:56;;;;;;;0.30;0.30;;;17.20;43.30;;;;;;4946304;28;20052;-52
2022/01/16 11:15:25;;;;;;;2.05;0.45;;;17.20;43.30;;;;;;4950366;28;20483;-50
2022/01/16 11:17:53;;;;;;;1.13;0.47;;;17.10;43.20;;;;;;4950102;28;20051;-53
2022/01/16 11:20:27;;;;;;;0.82;0.50;;;17.10;43.10;;;;;;4949868;28;20031;-52
2022/01/16 11:22:59;;;;;;;0.90;0.38;;;17.20;43.10;;;;;;4949022;28;20054;-55
2022/01/16 11:25:33;;;;;;;0.40;0.32;;;17.10;43.10;;;;;;4950615;28;20129;-53
2022/01/16 11:28:03;;;;;;;0.80;0.40;;;17.10;43.10;;;;;;4949815;28;20412;-50
2022/01/16 11:30:34;;;;;;;0.88;0.38;;;17.20;43.10;;;;;;4951985;28;20047;-53
2022/01/16 11:33:01;;;;;;;0.40;0.40;;;17.20;43.10;;;;;;4948105;28;20043;-50
2022/01/16 11:35:29;;;;;;;1.15;0.25;;;17.20;43.00;;;;;;4949992;28;20043;-52
2022/01/16 11:37:57;;;;;;;2.70;0.43;;;17.20;43.00;;;;;;4946714;28;20050;-49
2022/01/16 11:40:30;;;;;;;1.65;0.60;;;17.10;42.90;;;;;;4947929;28;20036;-48
2022/01/16 11:43:18;;;;;;;0.60;0.35;;;17.10;42.90;;;;;;4949606;28;20047;-49
2022/01/16 11:45:52;;;;;;;1.30;0.45;;;17.10;42.90;;;;;;4950447;28;20122;-51
2022/01/16 11:48:41;;;;;;;0.80;0.52;;;17.10;43.00;;;;;;4950080;29;20047;-52
2022/01/16 11:51:51;;;;;;;0.38;0.38;;;17.10;42.90;;;;;;4949745;28;20047;-53
2022/01/16 11:54:24;;;;;;;0.75;0.50;;;17.10;42.90;;;;;;4949544;28;20054;-51
2022/01/16 11:57:23;;;;;;;1.35;0.57;;;17.00;43.00;;;;;;4947423;28;20051;-50
2022/01/16 11:59:54;;;;;;;2.25;0.77;;;17.00;42.90;;;;;;4888482;29;20059;-49
2022/01/16 12:02:28;;;;;;;0.73;0.73;;;17.00;43.00;;;;;;4889145;29;21068;-48
2022/01/16 12:05:07;;;;;;;0.63;0.50;;;17.00;42.90;;;;;;4888828;29;20041;-54
2022/01/16 12:07:48;;;;;;;0.77;0.40;;;17.00;42.90;;;;;;4889151;29;20528;-49
2022/01/16 12:10:38;;;;;;;0.57;0.55;;;17.00;42.90;;;;;;4885942;29;20057;-48
2022/01/16 12:13:12;;;;;;;0.80;0.70;;;17.00;42.90;;;;;;4889364;29;20116;-53
2022/01/16 12:15:39;;;;;;;1.15;0.35;;;17.00;43.00;;;;;;4884201;29;20078;-52
2022/01/16 12:18:34;;;;;;;1.15;0.30;;;16.90;43.00;;;;;;4890135;29;20041;-49
2022/01/16 12:21:01;;;;;;;1.80;0.47;;;17.00;43.00;;;;;;4889588;29;20060;-51
2022/01/16 12:23:30;;;;;;;1.52;0.85;;;16.90;43.00;;;;;;4887030;29;20048;-50
2022/01/16 12:25:58;;;;;;;1.33;0.32;;;16.90;43.00;;;;;;4889187;29;20189;-49
2022/01/16 12:28:26;;;;;;;0.93;0.75;;;16.90;43.00;;;;;;4889307;29;20144;-47
2022/01/16 12:30:58;;;;;;;2.35;0.30;;;16.90;43.00;;;;;;4889251;29;20060;-49
2022/01/16 12:33:30;;;;;;;0.65;0.30;;;16.90;42.90;;;;;;4906055;28;20051;-51
2022/01/16 12:36:15;;;;;;;1.25;0.20;;;16.90;42.90;;;;;;4948762;28;20506;-50
2022/01/16 12:38:49;;;;;;;0.57;0.40;;;16.90;42.90;;;;;;4948477;28;20538;-48
2022/01/16 12:41:19;;;;;;;1.10;0.40;;;16.90;43.00;;;;;;4947308;28;20050;-50
2022/01/16 12:43:53;;;;;;;0.68;0.68;;;16.90;43.00;;;;;;4947892;28;20050;-49
2022/01/16 12:46:24;;;;;;;0.40;0.25;;;16.90;43.00;;;;;;4948640;28;20523;-50
2022/01/16 12:48:54;;;;;;;0.43;0.32;;;16.90;43.00;;;;;;4947099;28;20553;-49
2022/01/16 12:51:24;;;;;;;0.50;0.50;;;16.80;43.00;;;;;;4948864;29;20147;-51
2022/01/16 12:53:52;;;;;;;0.40;0.40;;;16.80;43.00;;;;;;4948526;28;20075;-49
2022/01/16 12:56:26;;;;;;;1.25;0.60;;;16.80;43.00;;;;;;4948110;28;20053;-52
2022/01/16 12:58:56;;;;;;;1.63;0.30;;;16.80;43.00;;;;;;4947805;28;20098;-48
2022/01/16 13:01:24;;;;;;;0.50;0.50;;;16.80;43.00;;;;;;4948533;28;20039;-53
2022/01/16 13:03:53;;;;;;;0.32;0.32;;;16.70;43.00;;;;;;4947958;28;20046;-52
2022/01/16 13:06:32;;;;;;;0.40;0.20;;;16.80;43.10;;;;;;4948378;29;20407;-49
2022/01/16 13:09:10;;;;;;;0.60;0.57;;;16.70;43.00;;;;;;4947407;28;20050;-50
2022/01/16 13:11:39;;;;;;;0.85;0.43;;;16.70;43.10;;;;;;4948007;28;20911;-53
2022/01/16 13:14:08;;;;;;;0.25;0.20;;;16.70;43.10;;;;;;4946452;28;20523;-48
2022/01/16 13:16:37;;;;;;;1.27;0.30;;;16.70;43.10;;;;;;4947999;28;20065;-52
2022/01/16 13:19:10;;;;;;;1.23;0.43;;;16.70;43.10;;;;;;4942899;28;20070;-47
2022/01/16 13:22:04;;;;;;;0.73;0.40;;;16.70;43.20;;;;;;4945030;28;20051;-49
2022/01/16 13:24:43;;;;;;;0.70;0.47;;;16.70;43.20;;;;;;4949407;28;20051;-52
2022/01/16 13:27:13;;;;;;;0.43;0.30;;;16.60;43.10;;;;;;4948622;29;20126;-48